createdAt,value
2019-02-06T00:00:48.662Z,0.00
2019-02-06T00:03:21.208Z,-0.10
2019-02-06T00:05:50.644Z,-0.10
2019-02-06T00:08:20.219Z,-0.10
2019-02-06T00:10:49.670Z,-0.10
2019-02-06T00:13:19.059Z,-0.20
2019-02-06T00:15:48.854Z,-0.20
2019-02-06T00:18:18.427Z,-0.20
2019-02-06T00:20:47.815Z,-0.20
2019-02-06T00:23:17.163Z,-0.30
2019-02-06T00:25:46.543Z,-0.30
2019-02-06T00:28:15.888Z,-0.40
2019-02-06T00:30:45.531Z,-0.40
2019-02-06T00:33:14.867Z,-0.50
2019-02-06T00:35:44.243Z,-0.60
2019-02-06T00:38:13.832Z,-0.60
2019-02-06T00:40:43.194Z,-0.70
2019-02-06T00:43:12.535Z,-0.70
2019-02-06T00:45:42.248Z,-0.80
2019-02-06T00:48:11.587Z,-0.90
2019-02-06T00:50:40.951Z,-0.90
2019-02-06T00:53:10.301Z,-1.00
2019-02-06T00:55:39.734Z,-1.00
2019-02-06T00:58:09.287Z,-1.00
2019-02-06T01:00:39.056Z,-1.00
2019-02-06T01:03:08.599Z,-1.00
2019-02-06T01:05:38.940Z,-1.10
2019-02-06T01:08:08.321Z,-1.10
2019-02-06T01:10:37.716Z,-1.20
2019-02-06T01:13:07.056Z,-1.30
2019-02-06T01:15:36.423Z,-1.30
2019-02-06T01:18:05.953Z,-1.40
2019-02-06T01:20:35.338Z,-1.40
2019-02-06T01:23:04.876Z,-1.40
2019-02-06T01:25:34.238Z,-1.40
2019-02-06T01:28:03.600Z,-1.40
2019-02-06T01:30:39.579Z,-1.40
2019-02-06T01:33:08.923Z,-1.30
2019-02-06T01:35:49.160Z,-1.40
2019-02-06T01:38:09.347Z,-1.30
2019-02-06T01:40:38.708Z,-1.40
2019-02-06T01:43:08.043Z,-1.40
2019-02-06T01:45:37.712Z,-1.50
2019-02-06T01:48:07.051Z,-1.50
2019-02-06T01:50:36.424Z,-1.50
2019-02-06T01:53:05.767Z,-1.50
2019-02-06T01:55:35.131Z,-1.50
2019-02-06T01:58:04.588Z,-1.50
2019-02-06T02:00:34.051Z,-1.50
2019-02-06T02:03:03.420Z,-1.40
2019-02-06T02:05:32.815Z,-1.40
2019-02-06T02:08:02.191Z,-1.30
2019-02-06T02:10:31.594Z,-1.20
2019-02-06T02:13:00.971Z,-1.20
2019-02-06T02:15:30.366Z,-1.20
2019-02-06T02:17:59.739Z,-1.30
2019-02-06T02:20:29.154Z,-1.30
2019-02-06T02:22:58.533Z,-1.30
2019-02-06T02:25:27.944Z,-1.30
2019-02-06T02:27:57.310Z,-1.30
2019-02-06T02:30:34.571Z,-1.20
2019-02-06T02:33:03.957Z,-1.20
2019-02-06T02:35:33.323Z,-1.20
2019-02-06T02:38:02.720Z,-1.20
2019-02-06T02:40:32.099Z,-1.10
2019-02-06T02:43:01.498Z,-1.10
2019-02-06T02:45:31.170Z,-1.10
2019-02-06T02:48:00.575Z,-1.10
2019-02-06T02:50:29.987Z,-1.10
2019-02-06T02:52:59.391Z,-1.10
2019-02-06T02:55:28.771Z,-1.10
2019-02-06T02:57:58.167Z,-1.20
2019-02-06T03:00:53.995Z,-1.10
2019-02-06T03:03:36.351Z,-1.10
2019-02-06T03:06:05.940Z,-1.00
2019-02-06T03:08:35.331Z,-0.90
2019-02-06T03:11:05.011Z,-0.90
2019-02-06T03:13:34.417Z,-0.80
2019-02-06T03:16:03.750Z,-0.70
2019-02-06T03:18:33.123Z,-0.70
2019-02-06T03:21:02.490Z,-0.70
2019-02-06T03:23:31.849Z,-0.70
2019-02-06T03:26:01.211Z,-0.70
2019-02-06T03:28:30.571Z,-0.70
2019-02-06T03:30:59.933Z,-0.70
2019-02-06T03:33:29.292Z,-0.70
2019-02-06T03:35:58.653Z,-0.70
2019-02-06T03:38:28.018Z,-0.80
2019-02-06T03:40:57.370Z,-0.70
2019-02-06T03:43:26.731Z,-0.70
2019-02-06T03:45:56.078Z,-0.70
2019-02-06T03:48:25.434Z,-0.70
2019-02-06T03:50:54.775Z,-0.70
2019-02-06T03:53:24.435Z,-0.60
2019-02-06T03:55:53.843Z,-0.60
2019-02-06T03:58:23.143Z,-0.60
2019-02-06T04:00:52.490Z,-0.60
2019-02-06T04:03:21.957Z,-0.70
2019-02-06T04:05:51.302Z,-0.70
2019-02-06T04:08:20.868Z,-0.60
2019-02-06T04:10:50.221Z,-0.60
2019-02-06T04:13:19.622Z,-0.60
2019-02-06T04:15:48.979Z,-0.60
2019-02-06T04:18:18.324Z,-0.60
2019-02-06T04:20:47.703Z,-0.60
2019-02-06T04:23:18.383Z,-0.50
2019-02-06T04:25:47.777Z,-0.50
2019-02-06T04:28:17.135Z,-0.60
2019-02-06T04:30:46.454Z,-0.60
2019-02-06T04:33:15.813Z,-0.70
2019-02-06T04:35:45.175Z,-0.60
2019-02-06T04:38:15.133Z,-0.60
2019-02-06T04:40:44.493Z,-0.70
2019-02-06T04:43:13.835Z,-0.60
2019-02-06T04:45:43.201Z,-0.60
2019-02-06T04:48:12.546Z,-0.60
2019-02-06T04:50:41.906Z,-0.60
2019-02-06T04:53:15.848Z,-0.50
2019-02-06T04:55:45.243Z,-0.50
2019-02-06T04:58:14.624Z,-0.50
2019-02-06T05:00:44.044Z,-0.50
2019-02-06T05:03:13.415Z,-0.60
2019-02-06T05:05:43.048Z,-0.60
2019-02-06T05:08:12.571Z,-0.70
2019-02-06T05:10:41.971Z,-0.60
2019-02-06T05:13:11.334Z,-0.60
2019-02-06T05:15:40.735Z,-0.60
2019-02-06T05:18:10.099Z,-0.70
2019-02-06T05:20:40.731Z,-0.70
2019-02-06T05:23:10.702Z,-0.70
2019-02-06T05:25:40.104Z,-0.70
2019-02-06T05:28:09.574Z,-0.70
2019-02-06T05:30:38.967Z,-0.70
2019-02-06T05:33:08.322Z,-0.70
2019-02-06T05:35:37.818Z,-0.70
2019-02-06T05:38:07.487Z,-0.70
2019-02-06T05:40:36.857Z,-0.70
2019-02-06T05:43:06.338Z,-0.70
2019-02-06T05:45:35.735Z,-0.70
2019-02-06T05:48:05.320Z,-0.70
2019-02-06T05:50:34.683Z,-0.80
2019-02-06T05:53:04.073Z,-0.80
2019-02-06T05:55:33.453Z,-0.80
2019-02-06T05:58:02.830Z,-0.80
2019-02-06T06:00:36.556Z,-0.80
2019-02-06T06:03:05.956Z,-0.80
2019-02-06T06:05:35.308Z,-0.80
2019-02-06T06:08:04.815Z,-0.80
2019-02-06T06:10:34.182Z,-0.90
2019-02-06T06:13:03.569Z,-0.90
2019-02-06T06:15:32.938Z,-0.90
2019-02-06T06:18:02.328Z,-0.80
2019-02-06T06:20:31.743Z,-0.80
2019-02-06T06:23:01.135Z,-0.80
2019-02-06T06:25:30.804Z,-0.80
2019-02-06T06:28:00.182Z,-0.80
2019-02-06T06:30:29.548Z,-0.80
2019-02-06T06:32:59.473Z,-0.80
2019-02-06T06:35:28.831Z,-0.80
2019-02-06T06:38:01.841Z,-0.80
2019-02-06T06:40:29.243Z,-0.90
2019-02-06T06:42:58.667Z,-0.90
2019-02-06T06:45:28.031Z,-1.00
2019-02-06T06:47:57.438Z,-1.00
2019-02-06T06:50:26.832Z,-1.00
2019-02-06T06:52:56.192Z,-1.00
2019-02-06T06:55:25.937Z,-1.00
2019-02-06T06:57:55.354Z,-1.00
2019-02-06T07:00:26.460Z,-1.00
2019-02-06T07:02:55.819Z,-1.10
2019-02-06T07:05:25.202Z,-1.10
2019-02-06T07:07:54.813Z,-1.10
2019-02-06T07:10:24.501Z,-1.20
2019-02-06T07:12:53.891Z,-1.20
2019-02-06T07:15:25.407Z,-1.20
2019-02-06T07:17:54.766Z,-1.20
2019-02-06T07:20:24.184Z,-1.30
2019-02-06T07:22:53.548Z,-1.30
2019-02-06T07:25:23.135Z,-1.30
2019-02-06T07:27:52.507Z,-1.20
2019-02-06T07:30:32.886Z,-1.20
2019-02-06T07:33:02.369Z,-1.20
2019-02-06T07:35:31.846Z,-1.20
2019-02-06T07:38:01.424Z,-1.10
2019-02-06T07:40:30.908Z,-1.00
2019-02-06T07:43:00.288Z,-1.00
2019-02-06T07:45:29.678Z,-1.10
2019-02-06T07:47:59.050Z,-1.10
2019-02-06T07:50:30.812Z,-1.20
2019-02-06T07:53:00.579Z,-1.20
2019-02-06T07:55:30.166Z,-1.30
2019-02-06T07:57:59.534Z,-1.20
2019-02-06T08:00:28.908Z,-1.20
2019-02-06T08:02:58.875Z,-1.30
2019-02-06T08:05:28.443Z,-1.20
2019-02-06T08:07:58.044Z,-1.20
2019-02-06T08:10:29.441Z,-1.20
2019-02-06T08:12:58.898Z,-1.20
2019-02-06T08:15:28.278Z,-1.20
2019-02-06T08:17:57.844Z,-1.20
2019-02-06T08:20:27.247Z,-1.20
2019-02-06T08:22:56.819Z,-1.30
2019-02-06T08:25:26.486Z,-1.30
2019-02-06T08:27:55.887Z,-1.30
2019-02-06T08:30:36.620Z,-1.30
2019-02-06T08:33:06.283Z,-1.30
2019-02-06T08:35:36.044Z,-1.30
2019-02-06T08:38:05.860Z,-1.30
2019-02-06T08:40:35.419Z,-1.30
2019-02-06T08:43:04.907Z,-1.30
2019-02-06T08:45:34.272Z,-1.30
2019-02-06T08:48:03.662Z,-1.30
2019-02-06T08:50:33.331Z,-1.30
2019-02-06T08:53:02.745Z,-1.30
2019-02-06T08:55:32.299Z,-1.30
2019-02-06T08:58:01.868Z,-1.30
2019-02-06T09:00:33.603Z,-1.30
2019-02-06T09:03:03.519Z,-1.20
2019-02-06T09:05:33.083Z,-1.20
2019-02-06T09:08:02.790Z,-1.20
2019-02-06T09:10:32.330Z,-1.20
2019-02-06T09:13:01.807Z,-1.10
2019-02-06T09:15:31.437Z,-1.00
2019-02-06T09:18:00.818Z,-1.00
2019-02-06T09:20:30.541Z,-1.00
2019-02-06T09:23:00.079Z,-1.10
2019-02-06T09:25:29.802Z,-1.00
2019-02-06T09:27:59.221Z,-1.00
2019-02-06T09:30:30.027Z,-0.90
2019-02-06T09:32:59.706Z,-0.90
2019-02-06T09:35:29.084Z,-0.90
2019-02-06T09:37:58.709Z,-0.90
2019-02-06T09:40:29.439Z,-1.00
2019-02-06T09:42:58.928Z,-1.00
2019-02-06T09:45:28.398Z,-0.90
2019-02-06T09:47:57.784Z,-0.90
2019-02-06T09:50:35.213Z,-0.80
2019-02-06T09:53:04.691Z,-0.70
2019-02-06T09:55:34.156Z,-0.70
2019-02-06T09:58:03.757Z,-0.70
2019-02-06T10:00:35.285Z,-0.60
2019-02-06T10:03:05.393Z,-0.50
2019-02-06T10:05:34.750Z,-0.50
2019-02-06T10:08:04.535Z,-0.50
2019-02-06T10:10:33.903Z,-0.60
2019-02-06T10:13:03.268Z,-0.60
2019-02-06T10:15:34.603Z,-0.60
2019-02-06T10:18:04.463Z,-0.60
2019-02-06T10:20:36.248Z,-0.60
2019-02-06T10:23:06.610Z,-0.60
2019-02-06T10:25:36.274Z,-0.60
2019-02-06T10:28:05.626Z,-0.60
2019-02-06T10:30:46.258Z,-0.60
2019-02-06T10:33:18.702Z,-0.60
2019-02-06T10:35:46.732Z,-0.60
2019-02-06T10:38:16.074Z,-0.60
2019-02-06T10:40:45.463Z,-0.50
2019-02-06T10:43:15.033Z,-0.50
2019-02-06T10:45:44.431Z,-0.30
2019-02-06T10:48:13.805Z,-0.20
2019-02-06T10:50:46.011Z,-0.10
2019-02-06T10:53:15.376Z,-0.10
2019-02-06T10:55:44.859Z,0.00
2019-02-06T10:58:14.359Z,0.00
2019-02-06T11:00:49.492Z,0.00
2019-02-06T11:03:19.715Z,0.00
2019-02-06T11:05:49.104Z,0.00
2019-02-06T11:08:18.572Z,0.10
2019-02-06T11:10:48.117Z,0.10
2019-02-06T11:13:17.711Z,0.20
2019-02-06T11:15:47.317Z,0.40
2019-02-06T11:18:16.679Z,0.50
2019-02-06T11:20:46.096Z,0.70
2019-02-06T11:23:15.467Z,0.70
2019-02-06T11:25:44.944Z,0.80
2019-02-06T11:28:14.507Z,0.70
2019-02-06T11:30:44.012Z,0.70
2019-02-06T11:33:13.510Z,0.90
2019-02-06T11:35:42.900Z,1.20
2019-02-06T11:38:12.267Z,1.40
2019-02-06T11:40:41.655Z,1.80
2019-02-06T11:43:11.524Z,1.90
2019-02-06T11:45:40.906Z,1.90
2019-02-06T11:48:10.383Z,2.00
2019-02-06T11:50:41.077Z,2.00
2019-02-06T11:53:18.584Z,2.10
2019-02-06T11:55:48.311Z,2.30
2019-02-06T11:58:17.755Z,2.80
2019-02-06T12:01:09.119Z,3.10
2019-02-06T12:03:38.485Z,3.20
2019-02-06T12:06:07.869Z,3.50
2019-02-06T12:08:37.228Z,3.40
2019-02-06T12:11:06.926Z,3.20
2019-02-06T12:13:36.283Z,3.40
2019-02-06T12:16:05.766Z,3.80
2019-02-06T12:18:35.170Z,4.40
2019-02-06T12:21:04.686Z,4.60
2019-02-06T12:23:34.047Z,4.60
2019-02-06T12:26:03.581Z,4.40
2019-02-06T12:28:32.944Z,4.20
2019-02-06T12:31:02.327Z,3.90
2019-02-06T12:33:31.730Z,3.70
2019-02-06T12:36:01.107Z,3.50
2019-02-06T12:38:30.791Z,3.30
2019-02-06T12:41:00.143Z,3.20
2019-02-06T12:43:29.526Z,3.10
2019-02-06T12:45:58.891Z,3.00
2019-02-06T12:48:28.272Z,3.00
2019-02-06T12:50:57.622Z,3.00
2019-02-06T12:53:50.710Z,2.90
2019-02-06T12:56:20.079Z,2.90
2019-02-06T12:58:49.475Z,2.80
2019-02-06T13:01:18.847Z,2.80
2019-02-06T13:03:48.241Z,2.90
2019-02-06T13:06:17.603Z,2.80
2019-02-06T13:08:47.012Z,2.80
2019-02-06T13:11:16.379Z,2.80
2019-02-06T13:13:45.755Z,2.70
2019-02-06T13:16:15.128Z,2.70
2019-02-06T13:18:44.511Z,2.80
2019-02-06T13:21:13.968Z,2.80
2019-02-06T13:23:43.359Z,2.80
2019-02-06T13:26:12.725Z,2.90
2019-02-06T13:28:42.112Z,2.80
2019-02-06T13:31:11.487Z,2.80
2019-02-06T13:33:40.918Z,2.70
2019-02-06T13:36:11.043Z,2.60
2019-02-06T13:38:40.438Z,2.50
2019-02-06T13:41:09.829Z,2.40
2019-02-06T13:43:39.207Z,2.40
2019-02-06T13:46:08.742Z,2.30
2019-02-06T13:48:38.115Z,2.40
2019-02-06T13:51:16.461Z,2.30
2019-02-06T13:53:38.507Z,2.30
2019-02-06T13:56:07.878Z,2.30
2019-02-06T13:58:37.262Z,2.30
2019-02-06T14:01:06.724Z,2.30
2019-02-06T14:03:36.107Z,2.20
2019-02-06T14:06:06.015Z,2.20
2019-02-06T14:08:35.406Z,2.20
2019-02-06T14:11:04.867Z,2.20
2019-02-06T14:13:34.249Z,2.20
2019-02-06T14:16:03.876Z,2.30
2019-02-06T14:18:33.242Z,2.30
2019-02-06T14:21:02.635Z,2.30
2019-02-06T14:23:56.115Z,2.20
2019-02-06T14:26:45.114Z,2.20
2019-02-06T14:29:52.759Z,2.10
2019-02-06T14:32:56.647Z,2.10
2019-02-06T14:36:00.455Z,2.00
2019-02-06T14:39:15.439Z,2.00
2019-02-06T14:41:53.055Z,2.00
2019-02-06T14:44:49.126Z,2.00
2019-02-06T14:47:32.957Z,2.00
2019-02-06T14:50:51.958Z,2.00
2019-02-06T14:53:52.999Z,2.00
2019-02-06T14:56:56.938Z,2.00
2019-02-06T15:00:05.644Z,1.90
2019-02-06T15:03:04.594Z,1.70
2019-02-06T15:06:19.663Z,1.70
2019-02-06T15:09:31.388Z,1.60
2019-02-06T15:12:41.736Z,1.50
2019-02-06T15:15:53.555Z,1.40
2019-02-06T15:18:48.855Z,1.40
2019-02-06T15:21:31.731Z,1.40
2019-02-06T15:24:26.125Z,1.40
2019-02-06T15:27:41.983Z,1.30
2019-02-06T15:30:46.830Z,1.30
2019-02-06T15:33:40.651Z,1.20
2019-02-06T15:36:33.915Z,1.20
2019-02-06T15:39:35.779Z,1.10
2019-02-06T15:42:31.720Z,1.00
2019-02-06T15:45:35.427Z,0.90
2019-02-06T15:48:36.338Z,0.80
2019-02-06T15:51:37.046Z,0.70
2019-02-06T15:54:31.756Z,0.60
2019-02-06T15:57:42.033Z,0.60
2019-02-06T16:00:48.030Z,0.40
2019-02-06T16:04:17.188Z,0.30
2019-02-06T16:07:15.282Z,0.30
2019-02-06T16:10:25.610Z,0.10
2019-02-06T16:13:24.136Z,-0.10
2019-02-06T16:16:19.444Z,-0.20
2019-02-06T16:19:24.751Z,-0.30
2019-02-06T16:22:12.355Z,-0.50
2019-02-06T16:25:07.083Z,-0.50
2019-02-06T16:27:58.315Z,-0.60
2019-02-06T16:30:49.775Z,-0.60
2019-02-06T16:34:01.952Z,-0.70
2019-02-06T16:36:51.927Z,-0.70
2019-02-06T16:39:58.999Z,-0.70
2019-02-06T16:43:08.339Z,-0.80
2019-02-06T16:46:20.500Z,-0.80
2019-02-06T16:49:51.765Z,-0.90
2019-02-06T16:52:46.348Z,-1.00
2019-02-06T16:55:51.706Z,-1.10
2019-02-06T16:59:10.835Z,-1.10
2019-02-06T17:02:01.585Z,-1.20
2019-02-06T17:04:49.047Z,-1.30
2019-02-06T17:07:51.254Z,-1.40
2019-02-06T17:10:57.286Z,-1.40
2019-02-06T17:13:59.374Z,-1.50
2019-02-06T17:17:22.099Z,-1.60
2019-02-06T17:20:50.779Z,-1.60
2019-02-06T17:23:49.675Z,-1.60
2019-02-06T17:27:09.628Z,-1.70
2019-02-06T17:30:25.935Z,-1.70
2019-02-06T17:33:37.559Z,-1.70
2019-02-06T17:36:37.080Z,-1.70
2019-02-06T17:39:27.631Z,-1.80
2019-02-06T17:42:15.851Z,-1.80
2019-02-06T17:45:14.521Z,-1.80
2019-02-06T17:48:22.058Z,-1.90
2019-02-06T17:51:11.198Z,-2.00
2019-02-06T17:54:01.798Z,-2.00
2019-02-06T17:56:31.175Z,-2.10
2019-02-06T17:59:00.548Z,-2.20
2019-02-06T18:01:39.352Z,-2.20
2019-02-06T18:04:11.406Z,-2.30
2019-02-06T18:06:40.891Z,-2.30
2019-02-06T18:09:15.575Z,-2.30
2019-02-06T18:11:46.120Z,-2.40
2019-02-06T18:14:15.482Z,-2.40
2019-02-06T18:16:44.887Z,-2.40
2019-02-06T18:19:14.298Z,-2.50
2019-02-06T18:21:43.699Z,-2.50
2019-02-06T18:24:13.310Z,-2.40
2019-02-06T18:26:47.043Z,-2.40
2019-02-06T18:29:16.634Z,-2.40
2019-02-06T18:31:46.015Z,-2.40
2019-02-06T18:34:15.576Z,-2.50
2019-02-06T18:36:44.958Z,-2.50
2019-02-06T18:39:15.874Z,-2.60
2019-02-06T18:41:45.264Z,-2.60
2019-02-06T18:44:14.631Z,-2.70
2019-02-06T18:46:45.614Z,-2.70
2019-02-06T18:49:15.209Z,-2.70
2019-02-06T18:51:45.462Z,-2.80
2019-02-06T18:54:14.821Z,-2.80
2019-02-06T18:56:44.511Z,-2.80
2019-02-06T18:59:13.869Z,-2.80
2019-02-06T19:01:43.298Z,-2.80
2019-02-06T19:04:17.636Z,-2.90
2019-02-06T19:06:47.016Z,-2.90
2019-02-06T19:09:17.280Z,-2.90
2019-02-06T19:11:46.776Z,-2.90
2019-02-06T19:14:16.307Z,-2.90
2019-02-06T19:16:45.691Z,-2.90
2019-02-06T19:19:24.833Z,-2.80
2019-02-06T19:21:46.100Z,-2.80
2019-02-06T19:24:17.738Z,-2.80
2019-02-06T19:26:46.547Z,-2.90
2019-02-06T19:29:15.906Z,-2.90
2019-02-06T19:31:45.627Z,-3.00
2019-02-06T19:34:14.987Z,-3.00
2019-02-06T19:36:44.367Z,-3.10
2019-02-06T19:39:13.732Z,-3.10
2019-02-06T19:41:43.118Z,-3.10
2019-02-06T19:44:12.473Z,-3.10
2019-02-06T19:46:41.851Z,-3.10
2019-02-06T19:49:11.314Z,-3.00
2019-02-06T19:51:40.698Z,-3.00
2019-02-06T19:54:10.063Z,-3.00
2019-02-06T19:56:39.451Z,-3.10
2019-02-06T19:59:08.816Z,-3.10
2019-02-06T20:01:38.262Z,-3.20
2019-02-06T20:04:07.631Z,-3.20
2019-02-06T20:06:37.214Z,-3.30
2019-02-06T20:09:11.344Z,-3.30
2019-02-06T20:11:40.735Z,-3.30
2019-02-06T20:14:10.448Z,-3.30
2019-02-06T20:16:39.827Z,-3.30
2019-02-06T20:19:09.207Z,-3.30
2019-02-06T20:21:38.585Z,-3.30
2019-02-06T20:24:08.383Z,-3.30
2019-02-06T20:26:37.749Z,-3.30
2019-02-06T20:29:07.136Z,-3.30
2019-02-06T20:31:36.499Z,-3.40
2019-02-06T20:34:06.036Z,-3.40
2019-02-06T20:36:35.407Z,-3.40
2019-02-06T20:39:07.988Z,-3.40
2019-02-06T20:41:37.351Z,-3.40
2019-02-06T20:44:06.843Z,-3.50
2019-02-06T20:46:36.194Z,-3.60
2019-02-06T20:49:05.676Z,-3.70
2019-02-06T20:51:35.036Z,-3.70
2019-02-06T20:54:04.814Z,-3.70
2019-02-06T20:56:34.184Z,-3.70
2019-02-06T20:59:03.563Z,-3.70
2019-02-06T21:01:32.918Z,-3.60
2019-02-06T21:04:02.302Z,-3.70
2019-02-06T21:06:31.659Z,-3.80
2019-02-06T21:09:01.043Z,-3.90
2019-02-06T21:11:30.712Z,-3.80
2019-02-06T21:14:00.161Z,-3.80
2019-02-06T21:16:29.524Z,-3.80
2019-02-06T21:18:58.906Z,-3.80
2019-02-06T21:21:28.291Z,-3.70
2019-02-06T21:23:57.675Z,-3.70
2019-02-06T21:26:27.230Z,-3.70
2019-02-06T21:28:56.617Z,-3.60
2019-02-06T21:31:25.980Z,-3.50
2019-02-06T21:33:55.363Z,-3.50
2019-02-06T21:36:24.730Z,-3.40
2019-02-06T21:38:54.137Z,-3.40
2019-02-06T21:41:23.792Z,-3.40
2019-02-06T21:43:53.262Z,-3.50
2019-02-06T21:46:22.647Z,-3.50
2019-02-06T21:48:52.035Z,-3.40
2019-02-06T21:51:21.407Z,-3.40
2019-02-06T21:53:50.791Z,-3.50
2019-02-06T21:56:20.249Z,-3.70
2019-02-06T21:58:49.606Z,-3.70
2019-02-06T22:01:19.003Z,-3.80
2019-02-06T22:03:48.382Z,-3.80
2019-02-06T22:06:17.759Z,-3.80
2019-02-06T22:08:47.120Z,-3.80
2019-02-06T22:11:16.811Z,-3.70
2019-02-06T22:13:54.963Z,-3.80
2019-02-06T22:16:17.198Z,-3.80
2019-02-06T22:18:46.572Z,-3.80
2019-02-06T22:21:15.974Z,-3.90
2019-02-06T22:23:45.327Z,-3.90
2019-02-06T22:26:14.919Z,-4.00
2019-02-06T22:28:44.278Z,-4.10
2019-02-06T22:31:13.663Z,-4.10
2019-02-06T22:33:43.027Z,-4.10
2019-02-06T22:36:12.407Z,-4.10
2019-02-06T22:38:41.775Z,-4.10
2019-02-06T22:41:11.408Z,-4.10
2019-02-06T22:43:40.739Z,-4.10
2019-02-06T22:46:10.155Z,-4.10
2019-02-06T22:48:39.512Z,-4.10
2019-02-06T22:51:08.903Z,-4.10
2019-02-06T22:53:38.259Z,-4.10
2019-02-06T22:56:07.754Z,-4.10
2019-02-06T22:58:37.115Z,-4.10
2019-02-06T23:01:34.947Z,-4.10
2019-02-06T23:04:04.813Z,-4.00
2019-02-06T23:06:34.199Z,-4.10
2019-02-06T23:09:05.207Z,-4.10
2019-02-06T23:11:34.542Z,-4.00
2019-02-06T23:14:04.000Z,-4.00
2019-02-06T23:16:33.483Z,-4.10
2019-02-06T23:19:02.945Z,-4.10
2019-02-06T23:21:32.359Z,-4.20
2019-02-06T23:24:01.714Z,-4.20
2019-02-06T23:26:31.098Z,-4.30
2019-02-06T23:29:00.457Z,-4.30
2019-02-06T23:31:29.831Z,-4.30
2019-02-06T23:33:59.199Z,-4.30
2019-02-06T23:36:28.575Z,-4.30
2019-02-06T23:38:57.945Z,-4.30
2019-02-06T23:41:27.300Z,-4.30
2019-02-06T23:43:56.678Z,-4.30
2019-02-06T23:46:26.049Z,-4.30
2019-02-06T23:48:55.427Z,-4.40
2019-02-06T23:51:24.796Z,-4.40
2019-02-06T23:53:54.239Z,-4.40
2019-02-06T23:56:23.654Z,-4.40
2019-02-06T23:58:53.041Z,-4.40
